Time;durP1;ratioP1;P1;durP2;ratioP2;P2;SDS_P1;SDS_P2;PMS_P1;PMS_P2;Temp;Humidity;BMP_temperature;BMP_pressure;BME280_temperature;BME280_humidity;BME280_pressure;Samples;Min_cycle;Max_cycle;Signal;HPM_P1;HPM_P2
2022/03/28 00:02:11;;;;;;;6.07;1.87;;;23.40;80.20;;;;;;5047000;28;20176;-75
2022/03/28 00:04:38;;;;;;;4.30;1.50;;;23.50;80.20;;;;;;5050967;28;20232;-75
2022/03/28 00:07:06;;;;;;;3.17;2.10;;;23.70;80.10;;;;;;5049469;28;20705;-73
2022/03/28 00:09:33;;;;;;;2.53;1.90;;;23.80;79.70;;;;;;5053081;28;20223;-76
2022/03/28 00:12:01;;;;;;;5.77;2.30;;;23.80;79.00;;;;;;5053993;28;20210;-75
2022/03/28 00:14:28;;;;;;;6.40;1.80;;;23.70;79.40;;;;;;5052306;28;20479;-73
2022/03/28 00:16:56;;;;;;;4.50;2.00;;;23.70;79.10;;;;;;5065387;28;20207;-75
2022/03/28 00:19:23;;;;;;;3.30;1.80;;;23.90;78.90;;;;;;5034601;28;20177;-75
2022/03/28 00:21:51;;;;;;;2.93;1.57;;;24.10;79.10;;;;;;5049926;28;20179;-74
2022/03/28 00:24:18;;;;;;;3.10;1.60;;;24.30;77.80;;;;;;5054814;28;20184;-75
2022/03/28 00:26:46;;;;;;;4.33;2.13;;;24.40;77.90;;;;;;5047290;28;20867;-75
2022/03/28 00:29:13;;;;;;;3.50;1.90;;;24.50;76.80;;;;;;5053237;28;20650;-74
2022/03/28 00:31:41;;;;;;;6.20;2.40;;;24.30;76.50;;;;;;5053440;28;20180;-74
2022/03/28 00:34:08;;;;;;;4.67;1.93;;;24.00;77.10;;;;;;5047133;28;20188;-76
2022/03/28 00:36:35;;;;;;;7.47;2.63;;;24.00;77.60;;;;;;5052144;28;20187;-76
2022/03/28 00:39:03;;;;;;;5.03;2.83;;;24.00;77.80;;;;;;5047859;28;20687;-76
2022/03/28 00:41:30;;;;;;;4.90;2.80;;;23.90;76.10;;;;;;5033593;28;20207;-77
2022/03/28 00:44:00;;;;;;;4.60;2.93;;;23.90;77.50;;;;;;5041921;28;20646;-76
2022/03/28 00:46:27;;;;;;;6.93;3.03;;;23.90;77.10;;;;;;5039049;28;20176;-76
2022/03/28 00:48:55;;;;;;;3.87;2.77;;;24.00;76.70;;;;;;5039081;28;20260;-77
2022/03/28 00:51:23;;;;;;;3.80;2.60;;;24.00;77.00;;;;;;5045237;28;20181;-77
2022/03/28 00:53:51;;;;;;;8.33;1.80;;;24.40;76.90;;;;;;5041546;28;20184;-76
2022/03/28 00:56:19;;;;;;;8.20;2.47;;;24.80;76.20;;;;;;5033780;28;20173;-79
2022/03/28 00:58:47;;;;;;;4.67;2.33;;;24.80;75.20;;;;;;5033206;28;20184;-76
2022/03/28 01:01:14;;;;;;;8.27;2.17;;;24.80;76.30;;;;;;5033609;28;20177;-77
2022/03/28 01:03:42;;;;;;;7.47;2.50;;;25.00;76.00;;;;;;5056945;28;20642;-77
2022/03/28 01:06:10;;;;;;;5.50;2.50;;;24.90;75.00;;;;;;5046720;28;20241;-76
2022/03/28 01:08:37;;;;;;;4.07;2.70;;;24.80;75.20;;;;;;5045732;28;20227;-78
2022/03/28 01:11:09;;;;;;;7.73;3.00;;;24.70;75.80;;;;;;5033493;28;20259;-77
2022/03/28 01:13:39;;;;;;;5.60;2.30;;;24.60;75.30;;;;;;5048641;28;20271;-74
2022/03/28 01:16:07;;;;;;;6.13;2.63;;;24.50;75.80;;;;;;5047925;28;20175;-75
2022/03/28 01:18:35;;;;;;;7.57;2.63;;;24.40;75.50;;;;;;5052164;28;20214;-75
2022/03/28 01:21:04;;;;;;;5.17;2.33;;;24.40;75.60;;;;;;5067176;28;20266;-78
2022/03/28 01:23:32;;;;;;;5.17;2.67;;;24.40;76.20;;;;;;5042322;28;20669;-76
2022/03/28 01:26:00;;;;;;;5.30;2.60;;;24.40;75.90;;;;;;5041451;28;20187;-74
2022/03/28 01:28:28;;;;;;;7.83;2.73;;;24.50;76.00;;;;;;5052602;28;20293;-77
2022/03/28 01:30:56;;;;;;;7.97;3.30;;;24.40;76.70;;;;;;5051890;28;20179;-76
2022/03/28 01:33:24;;;;;;;8.07;2.70;;;24.40;76.10;;;;;;5045603;28;20194;-76
2022/03/28 01:35:52;;;;;;;8.73;3.10;;;24.30;76.50;;;;;;5051039;28;20658;-76
2022/03/28 01:38:21;;;;;;;10.47;3.30;;;24.40;76.10;;;;;;5048608;28;20196;-74
2022/03/28 01:40:52;;;;;;;3.97;2.67;;;24.50;75.90;;;;;;5050862;28;20191;-75
2022/03/28 01:43:21;;;;;;;9.97;3.40;;;24.50;75.90;;;;;;5049398;28;20191;-73
2022/03/28 01:45:50;;;;;;;12.03;3.10;;;24.60;76.40;;;;;;5050494;28;20278;-76
2022/03/28 01:48:18;;;;;;;5.63;2.70;;;24.60;75.50;;;;;;5047364;28;20628;-74
2022/03/28 01:50:45;;;;;;;9.47;3.23;;;24.70;75.20;;;;;;5049701;28;20546;-73
2022/03/28 01:53:13;;;;;;;6.03;3.10;;;24.50;75.60;;;;;;5051668;28;20219;-74
2022/03/28 01:55:40;;;;;;;6.63;3.27;;;24.40;76.40;;;;;;5048763;28;20211;-74
2022/03/28 01:58:08;;;;;;;5.90;3.27;;;24.40;76.50;;;;;;5051424;28;20208;-74
2022/03/28 02:00:36;;;;;;;7.50;3.60;;;24.40;76.60;;;;;;5052068;28;20200;-74
2022/03/28 02:03:03;;;;;;;8.47;3.43;;;24.30;76.50;;;;;;5052193;28;20342;-76
2022/03/28 02:05:31;;;;;;;7.00;3.13;;;24.30;75.90;;;;;;5052090;28;20188;-74
2022/03/28 02:07:59;;;;;;;6.40;3.20;;;24.40;76.20;;;;;;5045369;28;20236;-73
2022/03/28 02:10:27;;;;;;;5.43;3.33;;;24.40;76.20;;;;;;5051211;28;20184;-76
2022/03/28 02:12:55;;;;;;;10.30;3.17;;;24.40;77.40;;;;;;5042726;28;20227;-75
2022/03/28 02:15:24;;;;;;;10.13;3.10;;;24.40;77.90;;;;;;5044603;28;20208;-76
2022/03/28 02:17:51;;;;;;;9.03;3.50;;;24.40;78.40;;;;;;5030722;28;20244;-76
2022/03/28 02:20:19;;;;;;;10.53;3.70;;;24.40;78.70;;;;;;5031390;28;20207;-76
2022/03/28 02:22:47;;;;;;;7.57;3.00;;;24.40;78.50;;;;;;5031336;28;20208;-77
2022/03/28 02:25:15;;;;;;;7.23;2.80;;;24.50;78.60;;;;;;5032284;28;20193;-74
2022/03/28 02:27:44;;;;;;;8.43;3.47;;;24.60;78.20;;;;;;5045966;28;20207;-74
2022/03/28 02:30:14;;;;;;;9.80;3.80;;;24.80;77.50;;;;;;5046412;28;20203;-74
2022/03/28 02:32:42;;;;;;;7.37;2.43;;;24.80;77.30;;;;;;5049862;28;20801;-75
2022/03/28 02:35:09;;;;;;;6.43;3.07;;;24.90;77.10;;;;;;5050935;28;20192;-74
2022/03/28 02:37:37;;;;;;;6.50;2.50;;;24.90;77.20;;;;;;5051698;28;20222;-75
2022/03/28 02:40:07;;;;;;;12.60;2.50;;;25.20;76.50;;;;;;5051781;28;20202;-74
2022/03/28 02:42:34;;;;;;;5.83;2.47;;;25.20;75.60;;;;;;5050765;28;20230;-74
2022/03/28 02:45:01;;;;;;;6.53;2.70;;;25.30;74.60;;;;;;5050312;28;20283;-75
2022/03/28 02:47:29;;;;;;;6.60;2.77;;;25.40;74.30;;;;;;5051054;28;20191;-74
2022/03/28 02:49:56;;;;;;;11.00;2.80;;;25.40;75.80;;;;;;5049056;28;20180;-73
2022/03/28 02:52:24;;;;;;;6.20;2.47;;;25.60;74.20;;;;;;5051543;28;20317;-74
2022/03/28 02:54:51;;;;;;;8.83;2.83;;;25.60;73.50;;;;;;5055670;28;20598;-74
2022/03/28 02:57:18;;;;;;;7.83;2.80;;;25.70;72.90;;;;;;5055425;28;20550;-76
2022/03/28 02:59:46;;;;;;;6.03;3.00;;;25.90;72.30;;;;;;5054211;28;20180;-73
2022/03/28 03:02:13;;;;;;;7.90;2.03;;;25.90;72.50;;;;;;5055847;28;20180;-75
2022/03/28 03:04:41;;;;;;;6.40;2.30;;;25.90;72.50;;;;;;5055630;28;20176;-75
2022/03/28 03:07:08;;;;;;;9.00;2.27;;;26.00;71.90;;;;;;5055991;28;20215;-74
2022/03/28 03:09:36;;;;;;;9.93;2.37;;;25.90;72.00;;;;;;5055215;28;20203;-74
2022/03/28 03:12:03;;;;;;;6.63;2.53;;;26.00;71.80;;;;;;5052893;28;20176;-74
2022/03/28 03:14:31;;;;;;;6.07;2.00;;;26.20;71.60;;;;;;5050178;28;20637;-73
2022/03/28 03:16:58;;;;;;;5.93;2.10;;;26.10;70.70;;;;;;5053969;28;20198;-74
2022/03/28 03:19:26;;;;;;;8.97;2.30;;;26.20;71.20;;;;;;5052387;28;20186;-74
2022/03/28 03:21:53;;;;;;;5.63;2.00;;;26.30;71.10;;;;;;5054034;28;20246;-74
2022/03/28 03:24:20;;;;;;;5.80;2.00;;;26.30;70.90;;;;;;5054893;28;20716;-72
2022/03/28 03:26:48;;;;;;;4.93;1.80;;;26.30;70.90;;;;;;5054206;28;20681;-74
2022/03/28 03:29:15;;;;;;;8.23;1.90;;;26.50;71.10;;;;;;5054272;28;20756;-73
2022/03/28 03:31:43;;;;;;;7.80;2.37;;;26.70;70.10;;;;;;5049316;28;20192;-73
2022/03/28 03:34:10;;;;;;;6.33;1.97;;;26.80;69.90;;;;;;5052135;28;20188;-72
2022/03/28 03:36:38;;;;;;;5.73;2.20;;;26.50;71.00;;;;;;5049980;28;20183;-72
2022/03/28 03:39:05;;;;;;;3.20;1.87;;;26.10;71.50;;;;;;5054454;28;20182;-73
2022/03/28 03:41:33;;;;;;;5.93;2.00;;;25.60;72.30;;;;;;5052501;28;20176;-73
2022/03/28 03:44:00;;;;;;;7.23;2.27;;;25.40;73.50;;;;;;5060697;28;20350;-73
2022/03/28 03:46:27;;;;;;;8.53;2.20;;;25.00;74.00;;;;;;5053980;28;20266;-73
2022/03/28 03:48:55;;;;;;;4.57;1.90;;;24.80;74.80;;;;;;5051418;28;20220;-74
2022/03/28 03:51:22;;;;;;;6.70;2.53;;;24.80;74.80;;;;;;5051019;28;20173;-71
2022/03/28 03:53:50;;;;;;;7.63;2.67;;;24.70;75.00;;;;;;5054881;28;20581;-73
2022/03/28 03:56:17;;;;;;;5.77;2.23;;;24.60;75.40;;;;;;5053341;28;20230;-74
2022/03/28 03:58:45;;;;;;;7.60;2.23;;;24.50;75.40;;;;;;5040946;28;20186;-71
2022/03/28 04:01:13;;;;;;;6.43;2.33;;;24.40;75.60;;;;;;5053156;28;20561;-72
2022/03/28 04:03:40;;;;;;;6.13;2.47;;;24.30;76.00;;;;;;5052019;28;20191;-72
2022/03/28 04:06:10;;;;;;;4.37;1.90;;;24.40;76.50;;;;;;5069006;28;20186;-71
2022/03/28 04:08:38;;;;;;;4.47;2.30;;;24.50;76.40;;;;;;5054228;28;20216;-71
2022/03/28 04:11:06;;;;;;;5.60;2.37;;;24.70;75.90;;;;;;5053802;28;20172;-72
2022/03/28 04:13:37;;;;;;;4.53;2.10;;;24.70;75.80;;;;;;5053345;28;20176;-71
2022/03/28 04:16:05;;;;;;;6.00;2.37;;;24.80;75.90;;;;;;5048726;28;20469;-72
2022/03/28 04:18:35;;;;;;;6.63;2.63;;;24.80;75.90;;;;;;5036847;28;20183;-72
2022/03/28 04:21:02;;;;;;;7.43;2.37;;;24.80;76.20;;;;;;5053228;28;20183;-72
2022/03/28 04:23:31;;;;;;;3.93;2.10;;;24.80;76.20;;;;;;5049450;28;20546;-73
2022/03/28 04:25:58;;;;;;;5.87;3.37;;;25.00;75.70;;;;;;5052259;28;20172;-72
2022/03/28 04:28:26;;;;;;;5.63;3.47;;;25.60;74.60;;;;;;5052230;28;20262;-72
2022/03/28 04:30:54;;;;;;;5.37;3.70;;;25.90;73.10;;;;;;5047869;28;20218;-72
2022/03/28 04:33:21;;;;;;;7.30;3.03;;;25.80;72.70;;;;;;5047543;28;20185;-72
2022/03/28 04:35:50;;;;;;;5.90;2.80;;;25.70;73.60;;;;;;5051180;28;20192;-71
2022/03/28 04:38:17;;;;;;;5.17;2.80;;;25.50;75.40;;;;;;5051933;28;20549;-71
2022/03/28 04:40:45;;;;;;;9.53;3.20;;;25.20;76.00;;;;;;5051180;28;20293;-71
2022/03/28 04:43:13;;;;;;;7.93;2.73;;;24.80;76.90;;;;;;5048684;28;20271;-71
2022/03/28 04:45:40;;;;;;;7.43;2.90;;;24.60;77.80;;;;;;5052934;28;20180;-71
2022/03/28 04:48:07;;;;;;;5.80;2.47;;;24.60;77.60;;;;;;5052872;28;20207;-73
2022/03/28 04:50:35;;;;;;;4.77;2.57;;;24.70;77.80;;;;;;5050986;28;20176;-71
2022/03/28 04:53:02;;;;;;;4.90;2.70;;;24.60;77.30;;;;;;5051777;28;20188;-74
2022/03/28 04:55:30;;;;;;;8.43;3.07;;;24.50;77.90;;;;;;5052759;28;20252;-72
2022/03/28 04:57:57;;;;;;;7.47;3.00;;;24.50;78.30;;;;;;5050208;28;20180;-73
2022/03/28 05:00:25;;;;;;;6.90;3.00;;;24.40;78.10;;;;;;5053358;28;20188;-73
2022/03/28 05:02:54;;;;;;;6.30;3.00;;;24.30;78.60;;;;;;5047422;28;20256;-72
2022/03/28 05:05:21;;;;;;;7.17;2.73;;;24.20;79.80;;;;;;5052864;28;20202;-72
2022/03/28 05:07:48;;;;;;;7.57;2.80;;;24.10;79.90;;;;;;5052385;28;20262;-74
2022/03/28 05:10:16;;;;;;;7.10;2.47;;;24.20;80.10;;;;;;5043768;28;20681;-73
2022/03/28 05:12:43;;;;;;;8.50;2.70;;;24.30;80.20;;;;;;5051228;28;20191;-72
2022/03/28 05:15:10;;;;;;;6.93;2.97;;;24.40;79.90;;;;;;5045200;28;20176;-73
2022/03/28 05:17:38;;;;;;;8.50;2.57;;;24.30;79.70;;;;;;5052674;28;20195;-74
2022/03/28 05:20:08;;;;;;;5.50;2.63;;;24.30;79.50;;;;;;5048354;28;20179;-74
2022/03/28 05:22:36;;;;;;;5.87;2.70;;;24.40;79.10;;;;;;5052461;28;20176;-73
2022/03/28 05:25:05;;;;;;;7.27;2.17;;;24.30;79.50;;;;;;5052908;28;20552;-72
2022/03/28 05:27:32;;;;;;;9.13;2.40;;;24.30;79.60;;;;;;5050855;28;20214;-74
2022/03/28 05:30:00;;;;;;;5.90;2.93;;;24.30;79.80;;;;;;5042862;28;20196;-72
2022/03/28 05:32:27;;;;;;;5.80;1.90;;;24.30;79.70;;;;;;5047275;28;20187;-73
2022/03/28 05:34:54;;;;;;;3.27;2.20;;;24.30;79.70;;;;;;5056737;28;20203;-72
2022/03/28 05:37:22;;;;;;;3.30;2.03;;;24.20;79.70;;;;;;5050755;28;20672;-73
2022/03/28 05:39:49;;;;;;;4.87;2.50;;;24.30;79.90;;;;;;5049387;28;20930;-72
2022/03/28 05:42:17;;;;;;;5.00;2.00;;;24.20;80.00;;;;;;5049758;28;20180;-73
2022/03/28 05:44:45;;;;;;;7.17;1.87;;;24.00;80.10;;;;;;5051048;28;20196;-75
2022/03/28 05:47:12;;;;;;;2.57;1.80;;;24.00;80.20;;;;;;5051741;28;20270;-74
2022/03/28 05:49:40;;;;;;;7.03;2.53;;;24.00;80.30;;;;;;5053633;28;20225;-74
2022/03/28 05:52:08;;;;;;;3.60;1.90;;;24.10;80.00;;;;;;5048897;28;20184;-73
2022/03/28 05:54:36;;;;;;;5.77;1.97;;;24.30;79.30;;;;;;5047306;28;20172;-76
2022/03/28 05:57:05;;;;;;;3.60;2.17;;;24.50;78.00;;;;;;5052079;28;20172;-74
2022/03/28 05:59:33;;;;;;;8.10;2.20;;;24.80;76.50;;;;;;5052119;28;20172;-73
2022/03/28 06:02:00;;;;;;;10.30;2.17;;;24.90;76.50;;;;;;5052895;28;20180;-73
2022/03/28 06:04:28;;;;;;;8.57;2.30;;;24.80;76.60;;;;;;5052175;28;20194;-73
2022/03/28 06:06:55;;;;;;;5.23;2.10;;;24.70;76.80;;;;;;5051154;28;20681;-72
2022/03/28 06:09:22;;;;;;;4.40;1.93;;;24.70;77.20;;;;;;5051168;28;20222;-78
2022/03/28 06:11:50;;;;;;;4.43;2.10;;;24.80;77.30;;;;;;5050198;28;20540;-74
2022/03/28 06:14:17;;;;;;;5.80;2.00;;;24.70;77.50;;;;;;5052722;28;20282;-74
2022/03/28 06:16:44;;;;;;;7.37;2.43;;;24.50;78.60;;;;;;5052779;28;20178;-76
2022/03/28 06:19:12;;;;;;;7.17;2.27;;;24.30;80.20;;;;;;5052142;28;20178;-77
2022/03/28 06:21:40;;;;;;;7.80;1.70;;;24.00;81.30;;;;;;5052894;28;20255;-73
2022/03/28 06:24:08;;;;;;;5.50;1.30;;;23.80;81.60;;;;;;5052626;28;20183;-74
2022/03/28 06:26:36;;;;;;;4.87;1.93;;;23.60;82.20;;;;;;5054929;28;20637;-74
2022/03/28 06:29:04;;;;;;;7.93;2.03;;;23.50;82.60;;;;;;5058925;28;20215;-76
2022/03/28 06:31:31;;;;;;;5.10;2.07;;;23.30;82.80;;;;;;5059461;28;20247;-73
2022/03/28 06:34:02;;;;;;;8.77;2.13;;;23.30;83.50;;;;;;5058485;28;20674;-71
2022/03/28 06:36:34;;;;;;;8.13;1.93;;;23.20;83.20;;;;;;5058218;28;20202;-73
2022/03/28 06:39:02;;;;;;;6.30;1.57;;;23.10;83.30;;;;;;5058663;28;20183;-79
2022/03/28 06:41:30;;;;;;;4.90;1.93;;;23.10;83.10;;;;;;5058685;28;20648;-71
2022/03/28 06:43:58;;;;;;;11.97;3.10;;;23.10;82.90;;;;;;5058622;28;20176;-75
2022/03/28 06:46:25;;;;;;;9.77;6.03;;;23.00;83.20;;;;;;5057557;28;20581;-71
2022/03/28 06:48:54;;;;;;;9.33;3.23;;;23.10;83.40;;;;;;5057347;28;20207;-72
2022/03/28 06:51:21;;;;;;;4.53;1.60;;;23.10;83.70;;;;;;5058179;28;20220;-72
2022/03/28 06:53:49;;;;;;;7.60;1.57;;;23.20;83.60;;;;;;5058965;28;20678;-72
2022/03/28 06:56:20;;;;;;;5.63;1.60;;;23.10;83.70;;;;;;5056085;28;20201;-72
2022/03/28 06:58:47;;;;;;;5.13;1.50;;;23.00;83.50;;;;;;5042367;28;20184;-71
2022/03/28 07:01:15;;;;;;;4.20;1.10;;;23.00;83.80;;;;;;5054827;28;20252;-71
2022/03/28 07:03:42;;;;;;;6.10;1.53;;;22.90;84.10;;;;;;5051022;28;20187;-72
2022/03/28 07:06:10;;;;;;;3.40;1.13;;;22.80;83.80;;;;;;5056081;28;20199;-73
2022/03/28 07:08:37;;;;;;;4.63;1.10;;;22.80;83.90;;;;;;5057147;28;20219;-71
2022/03/28 07:11:05;;;;;;;5.17;1.47;;;22.80;84.50;;;;;;5057760;28;20180;-72
2022/03/28 07:13:32;;;;;;;7.17;1.70;;;22.80;85.10;;;;;;5058249;28;20183;-71
2022/03/28 07:16:00;;;;;;;6.57;1.80;;;22.80;85.40;;;;;;5055228;28;20546;-73
2022/03/28 07:18:27;;;;;;;8.20;1.60;;;22.70;85.50;;;;;;5054506;28;20233;-72
2022/03/28 07:20:54;;;;;;;10.60;1.83;;;22.80;85.90;;;;;;5046400;28;20271;-72
2022/03/28 07:23:22;;;;;;;6.63;1.63;;;22.70;85.90;;;;;;5047917;28;20190;-73
2022/03/28 07:25:50;;;;;;;8.03;1.50;;;22.70;86.10;;;;;;5048053;28;20185;-74
2022/03/28 07:28:18;;;;;;;8.67;3.17;;;22.60;86.30;;;;;;5053726;28;20261;-71
2022/03/28 07:30:46;;;;;;;10.97;4.23;;;22.60;86.50;;;;;;5071817;28;20184;-73
2022/03/28 07:33:13;;;;;;;10.40;3.10;;;22.50;86.80;;;;;;5056846;28;20619;-72
2022/03/28 07:35:41;;;;;;;10.23;2.87;;;22.50;86.90;;;;;;5053517;28;20199;-73
2022/03/28 07:38:10;;;;;;;14.17;3.00;;;22.50;87.20;;;;;;5056704;28;20259;-72
2022/03/28 07:40:43;;;;;;;11.13;2.07;;;22.40;87.40;;;;;;5055249;28;20179;-72
2022/03/28 07:43:10;;;;;;;11.13;2.30;;;22.50;87.60;;;;;;5055632;28;20172;-73
2022/03/28 07:45:37;;;;;;;10.83;5.33;;;22.40;87.70;;;;;;5054196;28;20184;-72
2022/03/28 07:48:06;;;;;;;13.53;5.87;;;22.30;87.80;;;;;;5051106;28;20697;-71
2022/03/28 07:50:34;;;;;;;11.43;2.53;;;22.40;87.90;;;;;;5053999;28;20180;-72
2022/03/28 07:53:03;;;;;;;10.17;2.10;;;22.30;87.90;;;;;;5054664;28;20630;-72
2022/03/28 07:55:31;;;;;;;11.03;1.97;;;22.30;88.10;;;;;;5052683;28;20704;-73
2022/03/28 07:58:02;;;;;;;14.10;2.17;;;22.30;88.30;;;;;;5054540;28;20186;-72
2022/03/28 08:00:30;;;;;;;8.33;1.90;;;22.30;88.20;;;;;;5053087;28;20184;-74
2022/03/28 08:02:58;;;;;;;12.93;2.17;;;22.20;88.20;;;;;;5054061;28;20192;-74
2022/03/28 08:05:26;;;;;;;7.40;1.53;;;22.20;88.60;;;;;;5054086;28;20693;-73
2022/03/28 08:07:54;;;;;;;7.37;2.13;;;22.20;88.30;;;;;;5043798;28;20231;-71
2022/03/28 08:10:23;;;;;;;7.93;1.50;;;22.20;88.40;;;;;;5053509;28;20184;-71
2022/03/28 08:12:51;;;;;;;4.00;1.20;;;22.20;88.30;;;;;;5053033;28;20188;-73
2022/03/28 08:15:21;;;;;;;5.43;1.50;;;22.20;88.00;;;;;;5053023;28;20267;-72
2022/03/28 08:17:49;;;;;;;6.17;1.53;;;22.20;88.00;;;;;;5053775;28;20321;-72
2022/03/28 08:20:16;;;;;;;6.17;1.40;;;22.10;88.00;;;;;;5054311;28;20196;-72
2022/03/28 08:22:49;;;;;;;6.47;1.33;;;22.10;88.20;;;;;;5052179;28;20516;-72
2022/03/28 08:25:18;;;;;;;5.40;1.40;;;22.10;88.30;;;;;;5052582;28;20689;-72
2022/03/28 08:27:46;;;;;;;10.63;1.80;;;22.10;88.30;;;;;;5054028;28;20176;-72
2022/03/28 08:30:14;;;;;;;7.97;1.50;;;22.20;88.50;;;;;;5054307;28;20247;-72
2022/03/28 08:32:42;;;;;;;9.10;1.50;;;22.10;88.70;;;;;;5052268;28;20168;-72
2022/03/28 08:35:10;;;;;;;10.73;3.57;;;22.20;88.80;;;;;;5053489;28;20184;-72
2022/03/28 08:37:38;;;;;;;10.03;5.23;;;22.20;88.80;;;;;;5053305;28;20199;-73
2022/03/28 08:40:06;;;;;;;8.87;2.67;;;22.20;88.90;;;;;;5054316;28;20180;-73
2022/03/28 08:42:34;;;;;;;4.77;1.53;;;22.10;89.00;;;;;;5052394;28;20581;-72
2022/03/28 08:45:03;;;;;;;10.47;1.40;;;22.10;89.10;;;;;;5051480;28;20175;-72
2022/03/28 08:47:32;;;;;;;6.20;1.37;;;22.20;89.00;;;;;;5054213;28;20176;-73
2022/03/28 08:49:59;;;;;;;4.97;1.20;;;22.10;88.80;;;;;;5053431;28;20686;-72
2022/03/28 08:52:27;;;;;;;4.50;1.20;;;22.10;88.80;;;;;;5051710;28;20234;-72
2022/03/28 08:54:57;;;;;;;13.70;7.73;;;22.00;88.80;;;;;;5046583;28;20187;-73
2022/03/28 08:57:25;;;;;;;19.13;14.40;;;22.00;88.80;;;;;;5053534;28;20172;-74
2022/03/28 08:59:52;;;;;;;11.50;8.37;;;22.10;88.70;;;;;;5053474;28;20179;-71
2022/03/28 09:02:37;;;;;;;4.20;2.97;;;22.10;88.70;;;;;;5053920;28;20201;-73
2022/03/28 09:05:05;;;;;;;7.33;2.13;;;22.20;88.60;;;;;;5052181;28;20175;-74
2022/03/28 09:07:33;;;;;;;8.30;1.73;;;22.20;88.70;;;;;;5052458;28;20227;-72
2022/03/28 09:10:06;;;;;;;4.73;1.40;;;22.10;88.50;;;;;;5053704;28;20234;-73
2022/03/28 09:12:40;;;;;;;7.43;1.60;;;22.10;88.30;;;;;;5052969;28;20187;-72
2022/03/28 09:15:09;;;;;;;4.57;1.60;;;22.20;88.30;;;;;;5048017;28;20184;-71
2022/03/28 09:17:40;;;;;;;6.40;1.20;;;22.10;88.20;;;;;;5053478;28;20179;-71
2022/03/28 09:20:08;;;;;;;4.47;1.30;;;22.10;88.20;;;;;;5049901;28;20176;-71
2022/03/28 09:22:41;;;;;;;8.53;1.80;;;22.20;88.20;;;;;;5052703;28;20199;-72
2022/03/28 09:25:12;;;;;;;9.13;2.03;;;22.20;88.40;;;;;;5046769;28;20252;-71
2022/03/28 09:27:44;;;;;;;5.83;1.60;;;22.30;88.30;;;;;;5050815;28;20188;-71
2022/03/28 09:30:19;;;;;;;7.87;1.80;;;22.30;88.20;;;;;;5050476;28;20271;-71
2022/03/28 09:32:49;;;;;;;9.03;2.17;;;22.20;88.40;;;;;;5048486;28;20537;-73
2022/03/28 09:35:21;;;;;;;7.67;2.00;;;22.20;88.20;;;;;;5049977;28;20658;-71
2022/03/28 09:37:49;;;;;;;5.13;1.43;;;22.20;88.10;;;;;;5052145;28;20267;-71
2022/03/28 09:40:34;;;;;;;4.47;1.40;;;22.20;88.00;;;;;;5049929;28;20594;-71
2022/03/28 09:43:08;;;;;;;5.00;1.40;;;22.20;88.00;;;;;;5052255;28;20506;-71
2022/03/28 09:45:37;;;;;;;5.20;1.43;;;22.20;87.80;;;;;;5051940;28;20661;-72
2022/03/28 09:48:07;;;;;;;8.40;1.73;;;22.20;88.00;;;;;;5048295;28;20206;-71
2022/03/28 09:50:47;;;;;;;5.33;1.50;;;22.30;88.00;;;;;;5047287;28;20704;-71
2022/03/28 09:53:20;;;;;;;5.03;1.73;;;22.20;88.10;;;;;;5051298;28;20190;-71
2022/03/28 09:55:57;;;;;;;8.67;1.70;;;22.20;88.30;;;;;;5051969;28;20204;-71
2022/03/28 09:58:46;;;;;;;11.27;1.80;;;22.20;88.20;;;;;;5051370;28;20167;-72
2022/03/28 10:01:20;;;;;;;7.13;1.40;;;22.10;88.40;;;;;;5048509;28;20184;-71
2022/03/28 10:03:53;;;;;;;9.77;1.57;;;22.10;88.50;;;;;;5051907;28;20186;-71
2022/03/28 10:06:22;;;;;;;6.53;1.77;;;22.10;88.60;;;;;;5051039;28;20226;-72
2022/03/28 10:08:50;;;;;;;7.43;1.80;;;22.10;88.70;;;;;;5049747;28;20678;-72
2022/03/28 10:11:19;;;;;;;4.00;1.47;;;22.10;88.50;;;;;;5051247;28;20221;-72
2022/03/28 10:13:47;;;;;;;8.47;1.73;;;22.10;88.50;;;;;;5051232;28;20176;-73
2022/03/28 10:16:15;;;;;;;5.97;1.57;;;22.00;88.60;;;;;;5048404;28;20171;-72
2022/03/28 10:18:47;;;;;;;7.60;1.80;;;22.00;88.90;;;;;;5050222;28;20187;-74
2022/03/28 10:21:19;;;;;;;8.03;1.70;;;21.90;89.50;;;;;;5050372;28;20213;-76
2022/03/28 10:23:55;;;;;;;8.40;2.00;;;21.90;90.10;;;;;;5051304;28;20182;-74
2022/03/28 10:26:45;;;;;;;9.87;2.10;;;21.80;90.70;;;;;;5051905;28;20187;-73
2022/03/28 10:29:18;;;;;;;8.10;2.00;;;21.70;91.00;;;;;;5042767;28;20560;-76
2022/03/28 10:32:01;;;;;;;11.10;2.60;;;21.60;91.70;;;;;;5051681;28;20182;-74
2022/03/28 10:34:53;;;;;;;11.63;3.00;;;21.60;91.70;;;;;;5051801;28;20183;-73
2022/03/28 10:37:35;;;;;;;8.83;2.57;;;21.50;92.10;;;;;;5050700;28;20650;-73
2022/03/28 10:40:28;;;;;;;11.27;2.80;;;21.40;92.20;;;;;;5050561;28;20630;-74
2022/03/28 10:43:13;;;;;;;10.40;3.03;;;21.30;92.30;;;;;;5042096;28;20184;-74
2022/03/28 10:45:49;;;;;;;12.37;3.23;;;21.30;92.50;;;;;;5051398;28;20202;-74
2022/03/28 10:48:32;;;;;;;8.83;3.00;;;21.30;92.60;;;;;;5051100;28;20706;-74
2022/03/28 10:51:14;;;;;;;11.10;3.10;;;21.20;92.80;;;;;;5037918;28;20279;-74
2022/03/28 10:53:46;;;;;;;13.27;3.37;;;21.20;93.10;;;;;;5032380;28;20203;-75
2022/03/28 10:56:20;;;;;;;11.87;3.60;;;21.20;93.30;;;;;;5042762;28;20194;-74
2022/03/28 10:58:55;;;;;;;11.57;3.80;;;21.20;93.40;;;;;;5051111;28;20238;-73
2022/03/28 11:01:34;;;;;;;14.10;4.67;;;21.20;93.60;;;;;;5051493;28;20179;-73
2022/03/28 11:04:15;;;;;;;14.87;4.50;;;21.20;93.70;;;;;;5045814;28;20202;-74
2022/03/28 11:07:04;;;;;;;14.03;4.97;;;21.20;93.80;;;;;;5036780;28;20303;-74
2022/03/28 11:09:59;;;;;;;12.77;3.90;;;21.10;93.90;;;;;;5038912;28;20227;-73
2022/03/28 11:12:40;;;;;;;10.87;4.73;;;21.00;93.90;;;;;;5047776;28;20629;-75
2022/03/28 11:15:15;;;;;;;12.87;4.70;;;21.00;94.10;;;;;;5055696;28;20306;-72
2022/03/28 11:18:09;;;;;;;11.20;5.13;;;21.00;94.30;;;;;;5054462;28;20171;-74
2022/03/28 11:20:48;;;;;;;15.20;5.43;;;21.00;94.40;;;;;;5049781;28;20196;-74
2022/03/28 11:23:18;;;;;;;11.60;5.83;;;21.00;94.50;;;;;;5053852;28;20282;-74
2022/03/28 11:25:47;;;;;;;9.60;4.87;;;21.00;94.50;;;;;;5054056;28;20274;-74
2022/03/28 11:28:24;;;;;;;12.93;5.37;;;21.00;94.50;;;;;;5055500;28;20932;-73
2022/03/28 11:30:59;;;;;;;14.27;5.70;;;21.00;94.60;;;;;;5054251;28;20171;-75
2022/03/28 11:33:43;;;;;;;14.43;5.77;;;21.00;94.60;;;;;;5054704;28;20210;-75
2022/03/28 11:36:19;;;;;;;11.73;5.33;;;21.00;94.70;;;;;;5052469;28;20225;-74
2022/03/28 11:38:50;;;;;;;18.17;6.23;;;21.00;94.80;;;;;;5052972;28;20184;-78
2022/03/28 11:41:25;;;;;;;14.50;5.70;;;21.10;94.90;;;;;;5054977;28;20176;-79
2022/03/28 11:43:55;;;;;;;18.90;7.20;;;21.10;95.00;;;;;;5055868;28;20642;-75
2022/03/28 11:46:29;;;;;;;17.97;6.00;;;21.00;95.00;;;;;;5054376;28;20700;-74
2022/03/28 11:49:06;;;;;;;12.87;6.10;;;21.10;95.10;;;;;;5052092;28;20254;-76
2022/03/28 11:51:39;;;;;;;14.93;6.30;;;21.00;95.10;;;;;;5035794;28;20179;-75
2022/03/28 11:54:09;;;;;;;14.07;5.93;;;21.00;95.20;;;;;;5044360;28;20179;-73
2022/03/28 11:59:25;;;;;;;14.70;5.73;;;20.90;95.20;;;;;;5053971;28;20258;-75
2022/03/28 12:02:00;;;;;;;14.77;5.97;;;20.90;95.20;;;;;;5048417;28;20180;-76
2022/03/28 12:04:28;;;;;;;13.73;6.50;;;20.80;95.30;;;;;;5053733;28;20224;-75
2022/03/28 12:06:56;;;;;;;15.93;6.20;;;20.80;95.20;;;;;;5054308;28;20267;-76
2022/03/28 12:09:24;;;;;;;19.03;6.57;;;20.80;95.30;;;;;;5054630;28;20291;-77
2022/03/28 12:11:53;;;;;;;12.70;6.43;;;20.80;95.30;;;;;;5054778;28;20172;-75
2022/03/28 12:14:22;;;;;;;17.23;6.27;;;20.80;95.40;;;;;;5049136;28;20192;-74
2022/03/28 12:16:52;;;;;;;15.00;6.90;;;20.80;95.40;;;;;;5053977;28;20168;-76
2022/03/28 12:19:30;;;;;;;13.87;7.43;;;20.80;95.50;;;;;;5048631;28;20187;-73
2022/03/28 12:21:59;;;;;;;19.53;8.10;;;20.80;95.50;;;;;;5044092;28;20254;-72
2022/03/28 12:24:28;;;;;;;13.83;7.67;;;20.80;95.50;;;;;;5041977;28;20727;-73
2022/03/28 12:26:59;;;;;;;13.70;8.23;;;20.70;95.60;;;;;;5053049;28;20179;-74
2022/03/28 12:29:32;;;;;;;15.77;8.17;;;20.60;95.60;;;;;;5053915;28;20686;-72
2022/03/28 12:32:04;;;;;;;14.00;7.60;;;20.70;95.70;;;;;;5053767;28;20188;-74
2022/03/28 12:34:33;;;;;;;14.67;8.50;;;20.60;95.80;;;;;;5054307;28;20183;-73
2022/03/28 12:37:00;;;;;;;13.47;9.37;;;20.60;95.80;;;;;;5052708;28;20246;-71
2022/03/28 12:39:28;;;;;;;14.03;9.00;;;20.60;95.90;;;;;;5053913;28;20587;-72
2022/03/28 12:41:57;;;;;;;11.57;9.30;;;20.60;95.90;;;;;;5054135;28;20600;-72
2022/03/28 12:44:28;;;;;;;14.57;9.37;;;20.70;96.00;;;;;;5052690;28;20598;-72
2022/03/28 12:47:07;;;;;;;11.20;9.07;;;20.60;96.10;;;;;;5051837;28;20172;-71
2022/03/28 12:49:45;;;;;;;12.30;8.87;;;20.70;96.20;;;;;;5053756;28;20230;-71
2022/03/28 12:52:18;;;;;;;15.73;10.27;;;20.70;96.20;;;;;;5051792;28;20233;-72
2022/03/28 12:54:46;;;;;;;15.27;10.23;;;20.70;96.30;;;;;;5048908;28;20189;-72
2022/03/28 12:57:26;;;;;;;11.60;10.30;;;20.70;96.30;;;;;;5052657;28;20665;-72
2022/03/28 12:59:54;;;;;;;13.40;10.00;;;20.70;96.30;;;;;;5053251;28;20202;-72